sensor_id;sensor_type;location;lat;lon;timestamp;P1;durP1;ratioP1;P2;durP2;ratioP2
48268;SDS011;34088;52.232;5.196;2024-03-08T00:02:23;58.90;;;31.40;;
48268;SDS011;34088;52.232;5.196;2024-03-08T00:04:49;61.42;;;31.17;;
48268;SDS011;34088;52.232;5.196;2024-03-08T00:07:15;62.97;;;30.80;;
48268;SDS011;34088;52.232;5.196;2024-03-08T00:09:40;59.75;;;30.38;;
48268;SDS011;34088;52.232;5.196;2024-03-08T00:12:05;62.58;;;32.05;;
48268;SDS011;34088;52.232;5.196;2024-03-08T00:14:31;60.83;;;31.35;;
48268;SDS011;34088;52.232;5.196;2024-03-08T00:16:56;55.00;;;28.47;;
48268;SDS011;34088;52.232;5.196;2024-03-08T00:33:04;55.42;;;28.02;;
48268;SDS011;34088;52.232;5.196;2024-03-08T00:35:29;58.33;;;31.27;;
48268;SDS011;34088;52.232;5.196;2024-03-08T00:37:55;57.47;;;30.08;;
48268;SDS011;34088;52.232;5.196;2024-03-08T00:40:21;60.92;;;31.05;;
48268;SDS011;34088;52.232;5.196;2024-03-08T00:42:47;55.78;;;29.75;;
48268;SDS011;34088;52.232;5.196;2024-03-08T00:45:12;56.47;;;30.77;;
48268;SDS011;34088;52.232;5.196;2024-03-08T00:47:38;53.45;;;28.58;;
48268;SDS011;34088;52.232;5.196;2024-03-08T00:50:04;60.80;;;31.33;;
48268;SDS011;34088;52.232;5.196;2024-03-08T00:52:29;57.97;;;29.70;;
48268;SDS011;34088;52.232;5.196;2024-03-08T00:54:55;55.20;;;30.17;;
48268;SDS011;34088;52.232;5.196;2024-03-08T00:57:20;61.28;;;31.40;;
48268;SDS011;34088;52.232;5.196;2024-03-08T01:02:12;56.23;;;29.80;;
48268;SDS011;34088;52.232;5.196;2024-03-08T01:04:37;56.47;;;29.33;;
48268;SDS011;34088;52.232;5.196;2024-03-08T01:07:02;58.50;;;30.60;;
48268;SDS011;34088;52.232;5.196;2024-03-08T01:09:28;57.00;;;30.73;;
48268;SDS011;34088;52.232;5.196;2024-03-08T01:11:54;55.03;;;29.50;;
48268;SDS011;34088;52.232;5.196;2024-03-08T01:14:20;54.47;;;29.92;;
48268;SDS011;34088;52.232;5.196;2024-03-08T01:16:47;55.58;;;29.75;;
48268;SDS011;34088;52.232;5.196;2024-03-08T01:19:13;56.47;;;30.55;;
48268;SDS011;34088;52.232;5.196;2024-03-08T01:21:38;53.05;;;29.08;;
48268;SDS011;34088;52.232;5.196;2024-03-08T01:24:04;56.97;;;30.30;;
48268;SDS011;34088;52.232;5.196;2024-03-08T01:26:29;50.92;;;28.20;;
48268;SDS011;34088;52.232;5.196;2024-03-08T01:28:55;58.75;;;30.83;;
48268;SDS011;34088;52.232;5.196;2024-03-08T01:31:21;55.23;;;29.50;;
48268;SDS011;34088;52.232;5.196;2024-03-08T01:33:46;54.83;;;29.80;;
48268;SDS011;34088;52.232;5.196;2024-03-08T01:36:11;56.93;;;29.83;;
48268;SDS011;34088;52.232;5.196;2024-03-08T01:38:40;57.38;;;31.05;;
48268;SDS011;34088;52.232;5.196;2024-03-08T01:41:07;59.25;;;32.03;;
48268;SDS011;34088;52.232;5.196;2024-03-08T01:43:34;53.60;;;30.33;;
48268;SDS011;34088;52.232;5.196;2024-03-08T01:45:59;59.17;;;30.67;;
48268;SDS011;34088;52.232;5.196;2024-03-08T01:48:30;54.88;;;30.13;;
48268;SDS011;34088;52.232;5.196;2024-03-08T01:50:56;52.00;;;28.58;;
48268;SDS011;34088;52.232;5.196;2024-03-08T01:53:22;54.90;;;30.02;;
48268;SDS011;34088;52.232;5.196;2024-03-08T01:55:49;56.20;;;31.10;;
48268;SDS011;34088;52.232;5.196;2024-03-08T01:58:16;57.72;;;31.63;;
48268;SDS011;34088;52.232;5.196;2024-03-08T02:00:46;57.03;;;30.75;;
48268;SDS011;34088;52.232;5.196;2024-03-08T02:03:14;66.22;;;32.45;;
48268;SDS011;34088;52.232;5.196;2024-03-08T02:05:40;58.13;;;32.40;;
48268;SDS011;34088;52.232;5.196;2024-03-08T02:08:06;57.80;;;31.40;;
48268;SDS011;34088;52.232;5.196;2024-03-08T02:10:35;58.70;;;32.05;;
48268;SDS011;34088;52.232;5.196;2024-03-08T02:13:01;59.00;;;31.55;;
48268;SDS011;34088;52.232;5.196;2024-03-08T02:15:50;54.58;;;31.25;;
48268;SDS011;34088;52.232;5.196;2024-03-08T02:18:26;53.60;;;30.85;;
48268;SDS011;34088;52.232;5.196;2024-03-08T02:20:52;56.72;;;31.17;;
48268;SDS011;34088;52.232;5.196;2024-03-08T02:23:19;61.55;;;33.33;;
48268;SDS011;34088;52.232;5.196;2024-03-08T02:25:45;56.65;;;31.83;;
48268;SDS011;34088;52.232;5.196;2024-03-08T02:28:11;59.05;;;32.30;;
48268;SDS011;34088;52.232;5.196;2024-03-08T02:30:37;60.00;;;31.98;;
48268;SDS011;34088;52.232;5.196;2024-03-08T02:35:28;54.97;;;29.25;;
48268;SDS011;34088;52.232;5.196;2024-03-08T02:37:54;59.03;;;29.90;;
48268;SDS011;34088;52.232;5.196;2024-03-08T02:40:19;57.80;;;29.73;;
48268;SDS011;34088;52.232;5.196;2024-03-08T02:42:44;55.63;;;31.33;;
48268;SDS011;34088;52.232;5.196;2024-03-08T02:45:10;54.27;;;31.33;;
48268;SDS011;34088;52.232;5.196;2024-03-08T02:47:35;55.07;;;29.43;;
48268;SDS011;34088;52.232;5.196;2024-03-08T02:50:00;56.50;;;30.65;;
48268;SDS011;34088;52.232;5.196;2024-03-08T02:52:26;56.25;;;31.33;;
48268;SDS011;34088;52.232;5.196;2024-03-08T02:54:52;56.25;;;31.17;;
48268;SDS011;34088;52.232;5.196;2024-03-08T02:57:17;56.88;;;31.23;;
48268;SDS011;34088;52.232;5.196;2024-03-08T02:59:43;59.15;;;31.25;;
48268;SDS011;34088;52.232;5.196;2024-03-08T03:02:08;58.22;;;31.90;;
48268;SDS011;34088;52.232;5.196;2024-03-08T03:04:35;57.15;;;32.50;;
48268;SDS011;34088;52.232;5.196;2024-03-08T03:07:00;55.38;;;30.80;;
48268;SDS011;34088;52.232;5.196;2024-03-08T03:09:26;59.88;;;32.90;;
48268;SDS011;34088;52.232;5.196;2024-03-08T03:11:53;60.28;;;32.53;;
48268;SDS011;34088;52.232;5.196;2024-03-08T03:14:19;55.97;;;31.80;;
48268;SDS011;34088;52.232;5.196;2024-03-08T03:16:46;60.03;;;33.40;;
48268;SDS011;34088;52.232;5.196;2024-03-08T03:19:11;61.83;;;33.50;;
48268;SDS011;34088;52.232;5.196;2024-03-08T03:21:36;57.83;;;31.20;;
48268;SDS011;34088;52.232;5.196;2024-03-08T03:24:03;59.05;;;32.33;;
48268;SDS011;34088;52.232;5.196;2024-03-08T03:28:56;61.05;;;32.58;;
48268;SDS011;34088;52.232;5.196;2024-03-08T03:31:22;58.80;;;31.58;;
48268;SDS011;34088;52.232;5.196;2024-03-08T03:33:49;57.10;;;32.38;;
48268;SDS011;34088;52.232;5.196;2024-03-08T03:36:16;54.28;;;30.45;;
48268;SDS011;34088;52.232;5.196;2024-03-08T03:38:42;58.30;;;32.58;;
48268;SDS011;34088;52.232;5.196;2024-03-08T03:41:08;56.90;;;32.75;;
48268;SDS011;34088;52.232;5.196;2024-03-08T03:43:35;57.42;;;31.65;;
48268;SDS011;34088;52.232;5.196;2024-03-08T03:46:07;61.78;;;33.33;;
48268;SDS011;34088;52.232;5.196;2024-03-08T03:48:32;60.67;;;33.42;;
48268;SDS011;34088;52.232;5.196;2024-03-08T03:50:58;58.40;;;32.80;;
48268;SDS011;34088;52.232;5.196;2024-03-08T03:53:23;55.90;;;32.10;;
48268;SDS011;34088;52.232;5.196;2024-03-08T03:55:50;61.47;;;33.28;;
48268;SDS011;34088;52.232;5.196;2024-03-08T03:58:16;56.28;;;32.50;;
48268;SDS011;34088;52.232;5.196;2024-03-08T04:00:47;58.47;;;32.88;;
48268;SDS011;34088;52.232;5.196;2024-03-08T04:03:12;59.42;;;31.48;;
48268;SDS011;34088;52.232;5.196;2024-03-08T04:05:37;57.20;;;31.95;;
48268;SDS011;34088;52.232;5.196;2024-03-08T04:08:04;56.50;;;32.35;;
48268;SDS011;34088;52.232;5.196;2024-03-08T04:10:29;59.45;;;31.33;;
48268;SDS011;34088;52.232;5.196;2024-03-08T04:12:54;54.03;;;31.50;;
48268;SDS011;34088;52.232;5.196;2024-03-08T04:15:21;60.72;;;33.33;;
48268;SDS011;34088;52.232;5.196;2024-03-08T04:17:48;58.05;;;30.75;;
48268;SDS011;34088;52.232;5.196;2024-03-08T04:20:13;63.75;;;32.75;;
48268;SDS011;34088;52.232;5.196;2024-03-08T04:22:39;62.60;;;34.40;;
48268;SDS011;34088;52.232;5.196;2024-03-08T04:25:05;63.80;;;33.92;;
48268;SDS011;34088;52.232;5.196;2024-03-08T04:27:35;60.38;;;34.33;;
48268;SDS011;34088;52.232;5.196;2024-03-08T04:30:01;57.35;;;32.92;;
48268;SDS011;34088;52.232;5.196;2024-03-08T04:32:27;56.72;;;30.02;;
48268;SDS011;34088;52.232;5.196;2024-03-08T04:34:54;62.63;;;34.08;;
48268;SDS011;34088;52.232;5.196;2024-03-08T04:37:20;59.25;;;33.45;;
48268;SDS011;34088;52.232;5.196;2024-03-08T04:39:48;61.88;;;33.92;;
48268;SDS011;34088;52.232;5.196;2024-03-08T04:42:14;61.83;;;34.38;;
48268;SDS011;34088;52.232;5.196;2024-03-08T04:44:40;58.30;;;34.38;;
48268;SDS011;34088;52.232;5.196;2024-03-08T04:47:05;60.83;;;33.83;;
48268;SDS011;34088;52.232;5.196;2024-03-08T04:49:32;59.25;;;34.00;;
48268;SDS011;34088;52.232;5.196;2024-03-08T04:51:59;61.80;;;35.30;;
48268;SDS011;34088;52.232;5.196;2024-03-08T04:54:28;59.88;;;35.05;;
48268;SDS011;34088;52.232;5.196;2024-03-08T04:56:54;60.60;;;34.72;;
48268;SDS011;34088;52.232;5.196;2024-03-08T04:59:19;58.10;;;33.00;;
48268;SDS011;34088;52.232;5.196;2024-03-08T05:01:44;65.90;;;35.13;;
48268;SDS011;34088;52.232;5.196;2024-03-08T05:04:10;57.38;;;34.00;;
48268;SDS011;34088;52.232;5.196;2024-03-08T05:06:35;59.67;;;34.53;;
48268;SDS011;34088;52.232;5.196;2024-03-08T05:11:31;59.22;;;34.10;;
48268;SDS011;34088;52.232;5.196;2024-03-08T05:13:56;59.87;;;34.73;;
48268;SDS011;34088;52.232;5.196;2024-03-08T05:16:23;63.08;;;35.00;;
48268;SDS011;34088;52.232;5.196;2024-03-08T05:18:49;61.92;;;35.05;;
48268;SDS011;34088;52.232;5.196;2024-03-08T05:21:16;60.85;;;34.88;;
48268;SDS011;34088;52.232;5.196;2024-03-08T05:23:45;59.80;;;35.83;;
48268;SDS011;34088;52.232;5.196;2024-03-08T05:26:10;57.20;;;34.07;;
48268;SDS011;34088;52.232;5.196;2024-03-08T05:28:35;63.00;;;36.90;;
48268;SDS011;34088;52.232;5.196;2024-03-08T05:31:01;60.67;;;35.67;;
48268;SDS011;34088;52.232;5.196;2024-03-08T05:33:26;63.88;;;35.88;;
48268;SDS011;34088;52.232;5.196;2024-03-08T05:35:51;64.37;;;35.53;;
48268;SDS011;34088;52.232;5.196;2024-03-08T05:38:17;61.42;;;36.10;;
48268;SDS011;34088;52.232;5.196;2024-03-08T05:40:42;58.35;;;34.67;;
48268;SDS011;34088;52.232;5.196;2024-03-08T05:43:08;62.47;;;35.55;;
48268;SDS011;34088;52.232;5.196;2024-03-08T05:45:33;64.20;;;36.67;;
48268;SDS011;34088;52.232;5.196;2024-03-08T05:47:59;60.05;;;34.42;;
48268;SDS011;34088;52.232;5.196;2024-03-08T05:50:24;60.67;;;35.63;;
48268;SDS011;34088;52.232;5.196;2024-03-08T05:52:50;59.65;;;34.35;;
48268;SDS011;34088;52.232;5.196;2024-03-08T05:55:15;64.17;;;36.37;;
48268;SDS011;34088;52.232;5.196;2024-03-08T05:57:41;62.72;;;36.47;;
48268;SDS011;34088;52.232;5.196;2024-03-08T06:00:07;64.07;;;35.78;;
48268;SDS011;34088;52.232;5.196;2024-03-08T06:04:58;62.97;;;36.07;;
48268;SDS011;34088;52.232;5.196;2024-03-08T06:07:23;60.60;;;35.17;;
48268;SDS011;34088;52.232;5.196;2024-03-08T06:09:49;60.73;;;35.13;;
48268;SDS011;34088;52.232;5.196;2024-03-08T06:12:14;63.03;;;36.57;;
48268;SDS011;34088;52.232;5.196;2024-03-08T06:14:43;62.28;;;35.58;;
48268;SDS011;34088;52.232;5.196;2024-03-08T06:17:12;60.45;;;34.85;;
48268;SDS011;34088;52.232;5.196;2024-03-08T06:19:37;62.13;;;34.75;;
48268;SDS011;34088;52.232;5.196;2024-03-08T06:22:02;61.47;;;33.57;;
48268;SDS011;34088;52.232;5.196;2024-03-08T06:24:30;57.90;;;34.45;;
48268;SDS011;34088;52.232;5.196;2024-03-08T06:26:57;57.15;;;33.65;;
48268;SDS011;34088;52.232;5.196;2024-03-08T06:29:22;59.13;;;34.38;;
48268;SDS011;34088;52.232;5.196;2024-03-08T06:31:47;60.80;;;33.67;;
48268;SDS011;34088;52.232;5.196;2024-03-08T06:34:13;57.53;;;33.57;;
48268;SDS011;34088;52.232;5.196;2024-03-08T06:36:40;58.97;;;34.42;;
48268;SDS011;34088;52.232;5.196;2024-03-08T06:39:05;64.35;;;35.30;;
48268;SDS011;34088;52.232;5.196;2024-03-08T06:41:35;60.95;;;34.05;;
48268;SDS011;34088;52.232;5.196;2024-03-08T06:44:02;62.45;;;35.15;;
48268;SDS011;34088;52.232;5.196;2024-03-08T06:46:28;60.05;;;35.05;;
48268;SDS011;34088;52.232;5.196;2024-03-08T06:48:53;61.17;;;36.07;;
48268;SDS011;34088;52.232;5.196;2024-03-08T06:51:18;63.17;;;36.17;;
48268;SDS011;34088;52.232;5.196;2024-03-08T06:53:44;57.10;;;33.67;;
48268;SDS011;34088;52.232;5.196;2024-03-08T06:56:09;60.00;;;35.30;;
48268;SDS011;34088;52.232;5.196;2024-03-08T06:58:35;57.93;;;34.63;;
48268;SDS011;34088;52.232;5.196;2024-03-08T07:01:00;59.15;;;35.35;;
48268;SDS011;34088;52.232;5.196;2024-03-08T07:03:28;61.03;;;36.35;;
48268;SDS011;34088;52.232;5.196;2024-03-08T07:05:54;61.00;;;36.58;;
48268;SDS011;34088;52.232;5.196;2024-03-08T07:08:21;65.63;;;37.83;;
48268;SDS011;34088;52.232;5.196;2024-03-08T07:10:48;55.60;;;33.65;;
48268;SDS011;34088;52.232;5.196;2024-03-08T07:13:14;59.67;;;35.10;;
48268;SDS011;34088;52.232;5.196;2024-03-08T07:15:40;64.78;;;36.38;;
48268;SDS011;34088;52.232;5.196;2024-03-08T07:18:05;57.63;;;35.40;;
48268;SDS011;34088;52.232;5.196;2024-03-08T07:20:30;60.05;;;35.30;;
48268;SDS011;34088;52.232;5.196;2024-03-08T07:22:56;58.55;;;36.40;;
48268;SDS011;34088;52.232;5.196;2024-03-08T07:25:21;64.20;;;36.33;;
48268;SDS011;34088;52.232;5.196;2024-03-08T07:27:50;59.05;;;35.10;;
48268;SDS011;34088;52.232;5.196;2024-03-08T07:30:20;57.67;;;34.92;;
48268;SDS011;34088;52.232;5.196;2024-03-08T07:33:05;56.05;;;34.50;;
48268;SDS011;34088;52.232;5.196;2024-03-08T07:35:32;54.88;;;35.10;;
48268;SDS011;34088;52.232;5.196;2024-03-08T07:37:57;57.22;;;36.65;;
48268;SDS011;34088;52.232;5.196;2024-03-08T07:40:25;56.35;;;34.60;;
48268;SDS011;34088;52.232;5.196;2024-03-08T07:42:50;50.67;;;32.75;;
48268;SDS011;34088;52.232;5.196;2024-03-08T07:45:16;57.50;;;34.60;;
48268;SDS011;34088;52.232;5.196;2024-03-08T07:47:41;52.97;;;32.55;;
48268;SDS011;34088;52.232;5.196;2024-03-08T07:52:35;56.22;;;33.10;;
48268;SDS011;34088;52.232;5.196;2024-03-08T07:55:01;54.20;;;33.15;;
48268;SDS011;34088;52.232;5.196;2024-03-08T07:57:27;54.08;;;35.35;;
48268;SDS011;34088;52.232;5.196;2024-03-08T07:59:52;56.47;;;34.47;;
48268;SDS011;34088;52.232;5.196;2024-03-08T08:02:17;54.37;;;34.20;;
48268;SDS011;34088;52.232;5.196;2024-03-08T08:04:43;50.80;;;32.97;;
48268;SDS011;34088;52.232;5.196;2024-03-08T08:07:09;51.33;;;31.17;;
48268;SDS011;34088;52.232;5.196;2024-03-08T08:09:35;51.70;;;31.60;;
48268;SDS011;34088;52.232;5.196;2024-03-08T08:12:00;53.60;;;31.37;;
48268;SDS011;34088;52.232;5.196;2024-03-08T08:14:28;54.92;;;33.53;;
48268;SDS011;34088;52.232;5.196;2024-03-08T08:16:54;51.10;;;33.13;;
48268;SDS011;34088;52.232;5.196;2024-03-08T08:19:20;49.22;;;32.53;;
48268;SDS011;34088;52.232;5.196;2024-03-08T08:21:46;51.38;;;33.85;;
48268;SDS011;34088;52.232;5.196;2024-03-08T08:24:11;50.83;;;33.85;;
48268;SDS011;34088;52.232;5.196;2024-03-08T08:26:37;50.83;;;32.70;;
48268;SDS011;34088;52.232;5.196;2024-03-08T08:29:02;51.83;;;31.77;;
48268;SDS011;34088;52.232;5.196;2024-03-08T08:31:27;55.17;;;31.80;;
48268;SDS011;34088;52.232;5.196;2024-03-08T08:33:53;48.67;;;30.98;;
48268;SDS011;34088;52.232;5.196;2024-03-08T08:36:23;48.38;;;31.63;;
48268;SDS011;34088;52.232;5.196;2024-03-08T08:38:51;45.97;;;30.15;;
48268;SDS011;34088;52.232;5.196;2024-03-08T08:41:19;45.92;;;28.55;;
48268;SDS011;34088;52.232;5.196;2024-03-08T08:43:46;44.58;;;30.92;;
48268;SDS011;34088;52.232;5.196;2024-03-08T08:46:11;49.43;;;30.93;;
48268;SDS011;34088;52.232;5.196;2024-03-08T08:48:38;45.53;;;27.45;;
48268;SDS011;34088;52.232;5.196;2024-03-08T08:51:04;44.95;;;28.05;;
48268;SDS011;34088;52.232;5.196;2024-03-08T08:53:31;44.95;;;27.23;;
48268;SDS011;34088;52.232;5.196;2024-03-08T08:55:56;42.20;;;25.47;;
48268;SDS011;34088;52.232;5.196;2024-03-08T08:58:21;44.90;;;27.57;;
48268;SDS011;34088;52.232;5.196;2024-03-08T09:00:47;41.28;;;27.90;;
48268;SDS011;34088;52.232;5.196;2024-03-08T09:03:12;44.90;;;29.45;;
48268;SDS011;34088;52.232;5.196;2024-03-08T09:05:38;43.10;;;29.33;;
48268;SDS011;34088;52.232;5.196;2024-03-08T09:08:03;40.67;;;26.67;;
48268;SDS011;34088;52.232;5.196;2024-03-08T09:10:28;45.55;;;29.38;;
48268;SDS011;34088;52.232;5.196;2024-03-08T09:12:54;43.57;;;26.33;;
48268;SDS011;34088;52.232;5.196;2024-03-08T09:15:19;40.17;;;23.38;;
48268;SDS011;34088;52.232;5.196;2024-03-08T09:17:45;42.20;;;29.90;;
48268;SDS011;34088;52.232;5.196;2024-03-08T09:20:11;44.58;;;30.48;;
48268;SDS011;34088;52.232;5.196;2024-03-08T09:22:40;43.28;;;30.20;;
48268;SDS011;34088;52.232;5.196;2024-03-08T09:25:08;45.88;;;29.90;;
48268;SDS011;34088;52.232;5.196;2024-03-08T09:27:34;40.58;;;28.88;;
48268;SDS011;34088;52.232;5.196;2024-03-08T09:32:26;40.90;;;29.08;;
48268;SDS011;34088;52.232;5.196;2024-03-08T09:34:51;44.65;;;27.88;;
48268;SDS011;34088;52.232;5.196;2024-03-08T09:37:16;42.43;;;30.23;;
48268;SDS011;34088;52.232;5.196;2024-03-08T09:42:07;45.78;;;30.13;;
48268;SDS011;34088;52.232;5.196;2024-03-08T09:44:33;43.88;;;29.90;;
48268;SDS011;34088;52.232;5.196;2024-03-08T09:47:00;48.05;;;29.77;;
48268;SDS011;34088;52.232;5.196;2024-03-08T09:49:27;44.85;;;30.13;;
48268;SDS011;34088;52.232;5.196;2024-03-08T09:51:53;41.42;;;29.70;;
48268;SDS011;34088;52.232;5.196;2024-03-08T09:54:20;43.17;;;29.33;;
48268;SDS011;34088;52.232;5.196;2024-03-08T09:56:47;41.05;;;28.67;;
48268;SDS011;34088;52.232;5.196;2024-03-08T09:59:13;43.97;;;29.50;;
48268;SDS011;34088;52.232;5.196;2024-03-08T10:02:04;42.90;;;28.50;;
48268;SDS011;34088;52.232;5.196;2024-03-08T10:04:30;41.95;;;27.67;;
48268;SDS011;34088;52.232;5.196;2024-03-08T10:06:57;41.53;;;28.63;;
48268;SDS011;34088;52.232;5.196;2024-03-08T10:09:24;43.72;;;29.08;;
48268;SDS011;34088;52.232;5.196;2024-03-08T10:12:01;42.47;;;27.10;;
48268;SDS011;34088;52.232;5.196;2024-03-08T10:14:26;43.58;;;29.15;;
48268;SDS011;34088;52.232;5.196;2024-03-08T10:16:52;39.40;;;26.63;;
48268;SDS011;34088;52.232;5.196;2024-03-08T10:19:18;40.55;;;27.30;;
48268;SDS011;34088;52.232;5.196;2024-03-08T10:21:49;39.70;;;28.67;;
48268;SDS011;34088;52.232;5.196;2024-03-08T10:24:17;40.10;;;28.13;;
48268;SDS011;34088;52.232;5.196;2024-03-08T10:26:42;38.33;;;27.30;;
48268;SDS011;34088;52.232;5.196;2024-03-08T10:29:09;38.72;;;25.40;;
48268;SDS011;34088;52.232;5.196;2024-03-08T10:31:34;40.10;;;27.15;;
48268;SDS011;34088;52.232;5.196;2024-03-08T10:33:59;37.83;;;25.10;;
48268;SDS011;34088;52.232;5.196;2024-03-08T10:36:26;40.42;;;27.50;;
48268;SDS011;34088;52.232;5.196;2024-03-08T10:38:53;35.55;;;23.77;;
48268;SDS011;34088;52.232;5.196;2024-03-08T10:41:21;41.92;;;27.30;;
48268;SDS011;34088;52.232;5.196;2024-03-08T10:47:00;40.15;;;27.10;;
48268;SDS011;34088;52.232;5.196;2024-03-08T10:49:54;36.25;;;19.17;;
48268;SDS011;34088;52.232;5.196;2024-03-08T10:52:20;38.58;;;22.95;;
48268;SDS011;34088;52.232;5.196;2024-03-08T10:54:46;39.67;;;25.48;;
48268;SDS011;34088;52.232;5.196;2024-03-08T10:57:13;38.80;;;26.45;;
48268;SDS011;34088;52.232;5.196;2024-03-08T10:59:42;36.00;;;24.88;;
48268;SDS011;34088;52.232;5.196;2024-03-08T11:02:09;33.35;;;22.90;;
48268;SDS011;34088;52.232;5.196;2024-03-08T11:04:37;38.38;;;25.15;;
48268;SDS011;34088;52.232;5.196;2024-03-08T11:07:02;39.53;;;26.50;;
48268;SDS011;34088;52.232;5.196;2024-03-08T11:09:31;38.72;;;26.48;;
48268;SDS011;34088;52.232;5.196;2024-03-08T11:12:18;33.80;;;22.88;;
48268;SDS011;34088;52.232;5.196;2024-03-08T11:14:46;35.88;;;22.50;;
48268;SDS011;34088;52.232;5.196;2024-03-08T11:17:15;36.45;;;24.92;;
48268;SDS011;34088;52.232;5.196;2024-03-08T11:19:49;32.80;;;22.27;;
48268;SDS011;34088;52.232;5.196;2024-03-08T11:22:21;34.10;;;24.45;;
48268;SDS011;34088;52.232;5.196;2024-03-08T11:24:48;35.53;;;23.27;;
48268;SDS011;34088;52.232;5.196;2024-03-08T11:27:14;37.78;;;24.27;;
48268;SDS011;34088;52.232;5.196;2024-03-08T11:29:40;38.47;;;24.48;;
48268;SDS011;34088;52.232;5.196;2024-03-08T11:34:34;32.28;;;22.50;;
48268;SDS011;34088;52.232;5.196;2024-03-08T11:37:00;32.83;;;21.70;;
48268;SDS011;34088;52.232;5.196;2024-03-08T11:39:25;32.72;;;21.52;;
48268;SDS011;34088;52.232;5.196;2024-03-08T11:41:51;32.55;;;23.70;;
48268;SDS011;34088;52.232;5.196;2024-03-08T11:44:17;43.17;;;24.77;;
48268;SDS011;34088;52.232;5.196;2024-03-08T11:46:42;31.15;;;21.52;;
48268;SDS011;34088;52.232;5.196;2024-03-08T11:49:12;32.45;;;22.17;;
48268;SDS011;34088;52.232;5.196;2024-03-08T11:54:04;34.42;;;21.30;;
48268;SDS011;34088;52.232;5.196;2024-03-08T11:56:31;30.52;;;22.38;;
48268;SDS011;34088;52.232;5.196;2024-03-08T11:58:57;32.13;;;21.05;;
48268;SDS011;34088;52.232;5.196;2024-03-08T12:01:22;29.63;;;21.45;;
48268;SDS011;34088;52.232;5.196;2024-03-08T12:03:57;27.20;;;18.05;;
48268;SDS011;34088;52.232;5.196;2024-03-08T12:06:24;29.10;;;17.83;;
48268;SDS011;34088;52.232;5.196;2024-03-08T12:08:49;29.38;;;20.98;;
48268;SDS011;34088;52.232;5.196;2024-03-08T12:13:42;31.35;;;19.88;;
48268;SDS011;34088;52.232;5.196;2024-03-08T12:16:11;27.63;;;20.38;;
48268;SDS011;34088;52.232;5.196;2024-03-08T12:18:38;29.27;;;19.42;;
48268;SDS011;34088;52.232;5.196;2024-03-08T12:21:07;26.80;;;16.35;;
48268;SDS011;34088;52.232;5.196;2024-03-08T12:23:33;25.67;;;15.85;;
48268;SDS011;34088;52.232;5.196;2024-03-08T12:28:38;29.67;;;20.02;;
48268;SDS011;34088;52.232;5.196;2024-03-08T12:31:03;27.48;;;19.08;;
48268;SDS011;34088;52.232;5.196;2024-03-08T12:33:30;28.05;;;19.42;;
48268;SDS011;34088;52.232;5.196;2024-03-08T12:35:55;27.60;;;19.33;;
48268;SDS011;34088;52.232;5.196;2024-03-08T12:38:23;26.75;;;19.08;;
48268;SDS011;34088;52.232;5.196;2024-03-08T12:40:50;23.63;;;16.30;;
48268;SDS011;34088;52.232;5.196;2024-03-08T12:43:15;30.20;;;19.02;;
48268;SDS011;34088;52.232;5.196;2024-03-08T12:45:41;26.33;;;18.42;;
48268;SDS011;34088;52.232;5.196;2024-03-08T12:48:12;26.30;;;20.25;;
48268;SDS011;34088;52.232;5.196;2024-03-08T12:50:40;28.80;;;19.55;;
48268;SDS011;34088;52.232;5.196;2024-03-08T12:53:05;27.25;;;17.02;;
48268;SDS011;34088;52.232;5.196;2024-03-08T12:57:57;27.55;;;19.83;;
48268;SDS011;34088;52.232;5.196;2024-03-08T13:00:24;29.05;;;18.90;;
48268;SDS011;34088;52.232;5.196;2024-03-08T13:02:49;31.48;;;20.70;;
48268;SDS011;34088;52.232;5.196;2024-03-08T13:05:16;25.67;;;15.60;;
48268;SDS011;34088;52.232;5.196;2024-03-08T13:07:42;28.63;;;19.40;;
48268;SDS011;34088;52.232;5.196;2024-03-08T13:10:11;29.55;;;19.67;;
48268;SDS011;34088;52.232;5.196;2024-03-08T13:12:40;26.13;;;16.65;;
48268;SDS011;34088;52.232;5.196;2024-03-08T13:15:08;27.48;;;18.77;;
48268;SDS011;34088;52.232;5.196;2024-03-08T13:17:39;27.98;;;18.88;;
48268;SDS011;34088;52.232;5.196;2024-03-08T13:20:05;28.33;;;17.88;;
48268;SDS011;34088;52.232;5.196;2024-03-08T13:22:32;28.02;;;20.63;;
48268;SDS011;34088;52.232;5.196;2024-03-08T13:24:58;27.75;;;17.58;;
48268;SDS011;34088;52.232;5.196;2024-03-08T13:27:25;27.65;;;17.35;;
48268;SDS011;34088;52.232;5.196;2024-03-08T13:32:17;31.20;;;20.73;;
48268;SDS011;34088;52.232;5.196;2024-03-08T13:34:42;29.08;;;20.98;;
48268;SDS011;34088;52.232;5.196;2024-03-08T13:37:10;29.00;;;19.00;;
48268;SDS011;34088;52.232;5.196;2024-03-08T13:39:36;26.80;;;18.55;;
48268;SDS011;34088;52.232;5.196;2024-03-08T13:42:13;29.27;;;21.58;;
48268;SDS011;34088;52.232;5.196;2024-03-08T13:44:44;29.50;;;21.13;;
48268;SDS011;34088;52.232;5.196;2024-03-08T13:47:13;30.58;;;19.90;;
48268;SDS011;34088;52.232;5.196;2024-03-08T13:49:39;32.17;;;20.88;;
48268;SDS011;34088;52.232;5.196;2024-03-08T13:52:04;29.13;;;20.95;;
48268;SDS011;34088;52.232;5.196;2024-03-08T13:54:30;29.55;;;20.55;;
48268;SDS011;34088;52.232;5.196;2024-03-08T13:59:21;30.00;;;20.52;;
48268;SDS011;34088;52.232;5.196;2024-03-08T14:01:54;30.30;;;21.17;;
48268;SDS011;34088;52.232;5.196;2024-03-08T14:04:19;28.77;;;19.33;;
48268;SDS011;34088;52.232;5.196;2024-03-08T14:09:10;29.87;;;20.90;;
48268;SDS011;34088;52.232;5.196;2024-03-08T14:11:41;31.23;;;22.00;;
48268;SDS011;34088;52.232;5.196;2024-03-08T14:14:09;29.90;;;20.73;;
48268;SDS011;34088;52.232;5.196;2024-03-08T14:16:35;31.48;;;19.75;;
48268;SDS011;34088;52.232;5.196;2024-03-08T14:19:02;28.73;;;21.17;;
48268;SDS011;34088;52.232;5.196;2024-03-08T14:21:30;28.13;;;20.55;;
48268;SDS011;34088;52.232;5.196;2024-03-08T14:23:56;30.20;;;20.55;;
48268;SDS011;34088;52.232;5.196;2024-03-08T14:26:21;31.50;;;20.00;;
48268;SDS011;34088;52.232;5.196;2024-03-08T14:28:47;28.33;;;20.48;;
48268;SDS011;34088;52.232;5.196;2024-03-08T14:31:12;28.07;;;18.60;;
48268;SDS011;34088;52.232;5.196;2024-03-08T14:33:37;29.75;;;20.02;;
48268;SDS011;34088;52.232;5.196;2024-03-08T14:36:03;30.10;;;19.63;;
48268;SDS011;34088;52.232;5.196;2024-03-08T14:38:29;28.77;;;19.73;;
48268;SDS011;34088;52.232;5.196;2024-03-08T14:40:55;28.53;;;19.50;;
48268;SDS011;34088;52.232;5.196;2024-03-08T14:43:20;30.98;;;20.45;;
48268;SDS011;34088;52.232;5.196;2024-03-08T14:45:46;27.15;;;20.58;;
48268;SDS011;34088;52.232;5.196;2024-03-08T14:50:38;29.03;;;20.33;;
48268;SDS011;34088;52.232;5.196;2024-03-08T14:53:04;26.88;;;20.00;;
48268;SDS011;34088;52.232;5.196;2024-03-08T14:55:31;30.83;;;20.20;;
48268;SDS011;34088;52.232;5.196;2024-03-08T14:57:56;25.80;;;17.77;;
48268;SDS011;34088;52.232;5.196;2024-03-08T15:02:58;28.02;;;19.88;;
48268;SDS011;34088;52.232;5.196;2024-03-08T15:05:24;28.75;;;20.65;;
48268;SDS011;34088;52.232;5.196;2024-03-08T15:07:53;30.13;;;21.35;;
48268;SDS011;34088;52.232;5.196;2024-03-08T15:10:19;28.77;;;19.25;;
48268;SDS011;34088;52.232;5.196;2024-03-08T15:12:47;26.88;;;19.25;;
48268;SDS011;34088;52.232;5.196;2024-03-08T15:15:13;29.92;;;20.30;;
48268;SDS011;34088;52.232;5.196;2024-03-08T15:17:43;28.63;;;20.40;;
48268;SDS011;34088;52.232;5.196;2024-03-08T15:20:11;29.15;;;20.45;;